Time;durP1;ratioP1;P1;durP2;ratioP2;P2;SDS_P1;SDS_P2;PMS_P1;PMS_P2;Temp;Humidity;BMP_temperature;BMP_pressure;BME280_temperature;BME280_humidity;BME280_pressure;Samples;Min_cycle;Max_cycle;Signal;HPM_P1;HPM_P2
2022/08/04 00:09:37;;;;;;;;;;;;;;;;;;21263427;27;19930;-63
2022/08/04 00:19:39;;;;;;;;;;;;;;;;;;21262086;27;20428;-62
2022/08/04 00:29:40;;;;;;;;;;;;;;;;;;21262476;27;19923;-60
2022/08/04 00:39:42;;;;;;;;;;;;;;;;;;21261945;27;20026;-62
2022/08/04 00:49:45;;;;;;;;;;;;;;;;;;21261524;27;19923;-63
2022/08/04 00:59:48;;;;;;;;;;;;;;;;;;21259272;27;19948;-56
2022/08/04 01:09:50;;;;;;;;;;;;;;;;;;21259144;27;19934;-58
2022/08/04 01:19:51;;;;;;;;;;;;;;;;;;21262917;27;19923;-65
2022/08/04 01:29:58;;;;;;;;;;;;;;;;;;21258078;27;19923;-61
2022/08/04 01:40:02;;;;;;;;;;;;;;;;;;21256736;27;19923;-56
2022/08/04 01:50:07;;;;;;;;;;;;;;;;;;21255009;27;19924;-59
2022/08/04 02:00:16;;;;;;;;;;;;;;;;;;21254824;27;19930;-55
2022/08/04 02:10:27;;;;;;;;;;;;;;;;;;21267958;27;19931;-62
2022/08/04 02:20:44;;;;;;;;;;;;;;;;;;21252513;27;19946;-56
2022/08/04 02:30:52;;;;;;;;;;;;;;;;;;21256165;27;19961;-59
2022/08/04 02:41:03;;;;;;;;;;;;;;;;;;21252012;27;19931;-56
2022/08/04 02:51:08;;;;;;;;;;;;;;;;;;21250237;27;19923;-59
2022/08/04 03:01:12;;;;;;;;;;;;;;;;;;21249692;27;20056;-54
2022/08/04 03:11:18;;;;;;;;;;;;;;;;;;21249496;27;19923;-55
2022/08/04 03:21:20;;;;;;;;;;;;;;;;;;21249646;27;19924;-56
2022/08/04 03:31:22;;;;;;;;;;;;;;;;;;21253210;28;19927;-58
2022/08/04 03:41:24;;;;;;;;;;;;;;;;;;21248477;28;20392;-56
2022/08/04 04:01:47;;;;;;;;;;;;;;;;;;21248700;28;20367;-61
2022/08/04 04:11:49;;;;;;;;;;;;;;;;;;21249405;28;19931;-58
2022/08/04 04:21:51;;;;;;;;;;;;;;;;;;21249134;27;19927;-59
2022/08/04 04:31:53;;;;;;;;;;;;;;;;;;21278069;27;20324;-60
2022/08/04 04:41:55;;;;;;;;;;;;;;;;;;21260751;27;19923;-57
2022/08/04 04:51:57;;;;;;;;;;;;;;;;;;21260692;27;19923;-61
2022/08/04 05:01:59;;;;;;;;;;;;;;;;;;21260433;27;19924;-60
2022/08/04 05:12:00;;;;;;;;;;;;;;;;;;21258959;27;19927;-60
2022/08/04 05:22:02;;;;;;;;;;;;;;;;;;21263053;27;19923;-59
2022/08/04 05:32:04;;;;;;;;;;;;;;;;;;21257188;27;20419;-60
2022/08/04 05:42:06;;;;;;;;;;;;;;;;;;21255374;27;19930;-58
2022/08/04 05:52:07;;;;;;;;;;;;;;;;;;21255855;27;19923;-60
2022/08/04 06:02:09;;;;;;;;;;;;;;;;;;21253829;27;19969;-60
2022/08/04 06:12:11;;;;;;;;;;;;;;;;;;21268797;27;20444;-58
2022/08/04 06:22:13;;;;;;;;;;;;;;;;;;21252244;27;19930;-60
2022/08/04 06:42:26;;;;;;;;;;;;;;;;;;21250621;27;19924;-56
2022/08/04 06:52:27;;;;;;;;;;;;;;;;;;21249532;27;19935;-56
2022/08/04 07:02:29;;;;;;;;;;;;;;;;;;21250249;27;19929;-54
2022/08/04 07:12:31;;;;;;;;;;;;;;;;;;21264808;27;20022;-54
2022/08/04 07:22:33;;;;;;;;;;;;;;;;;;21248680;27;20302;-64
2022/08/04 07:32:35;;;;;;;;;;;;;;;;;;21248283;28;20315;-56
2022/08/04 07:42:40;;;;;;;;;;;;;;;;;;21248944;28;19974;-56
2022/08/04 07:52:42;;;;;;;;;;;;;;;;;;21247461;28;20325;-56
2022/08/04 08:02:44;;;;;;;;;;;;;;;;;;21258010;27;19935;-62
2022/08/04 08:12:46;;;;;;;;;;;;;;;;;;21262316;27;19963;-55
2022/08/04 08:22:48;;;;;;;;;;;;;;;;;;21261608;27;19935;-61
2022/08/04 08:32:50;;;;;;;;;;;;;;;;;;21260855;27;19946;-61
2022/08/04 08:42:52;;;;;;;;;;;;;;;;;;21261655;27;19924;-58
2022/08/04 08:52:53;;;;;;;;;;;;;;;;;;21259856;27;19976;-63
2022/08/04 09:02:55;;;;;;;;;;;;;;;;;;21260042;27;20061;-64
2022/08/04 09:12:58;;;;;;;;;;;;;;;;;;21259856;27;19976;-62
2022/08/04 09:23:00;;;;;;;;;;;;;;;;;;21258419;27;19935;-56
2022/08/04 09:33:02;;;;;;;;;;;;;;;;;;21257171;27;19977;-66
2022/08/04 09:43:05;;;;;;;;;;;;;;;;;;21258590;27;19923;-56
2022/08/04 09:53:15;;;;;;;;;;;;;;;;;;21260755;27;20344;-55
2022/08/04 10:03:17;;;;;;;;;;;;;;;;;;21260209;27;19923;-55
2022/08/04 10:13:19;;;;;;;;;;;;;;;;;;21258014;27;19944;-55
2022/08/04 10:23:21;;;;;;;;;;;;;;;;;;21251080;27;19927;-66
2022/08/04 10:33:23;;;;;;;;;;;;;;;;;;21251084;27;19930;-59
2022/08/04 10:43:25;;;;;;;;;;;;;;;;;;21248499;27;19923;-63
2022/08/04 10:53:27;;;;;;;;;;;;;;;;;;21247387;27;19928;-64
2022/08/04 11:03:30;;;;;;;;;;;;;;;;;;21246441;27;20366;-59
2022/08/04 11:13:33;;;;;;;;;;;;;;;;;;21246685;27;20275;-56
2022/08/04 11:23:34;;;;;;;;;;;;;;;;;;21246283;27;19977;-61
2022/08/04 11:33:36;;;;;;;;;;;;;;;;;;21252257;27;20410;-57
2022/08/04 11:43:38;;;;;;;;;;;;;;;;;;21264119;27;19942;-65
2022/08/04 11:53:41;;;;;;;;;;;;;;;;;;21263076;27;19930;-62
2022/08/04 12:03:42;;;;;;;;;;;;;;;;;;21262708;27;20427;-62
2022/08/04 12:13:46;;;;;;;;;;;;;;;;;;21263758;27;19923;-64
2022/08/04 12:23:48;;;;;;;;;;;;;;;;;;21263269;27;19928;-65
2022/08/04 12:33:50;;;;;;;;;;;;;;;;;;21260387;27;19923;-57
2022/08/04 12:43:54;;;;;;;;;;;;;;;;;;21259838;27;19973;-65
2022/08/04 12:53:56;;;;;;;;;;;;;;;;;;21261151;27;19970;-58
2022/08/04 13:03:58;;;;;;;;;;;;;;;;;;21261110;27;20002;-57
2022/08/04 13:14:00;;;;;;;;;;;;;;;;;;21257514;27;19931;-62
2022/08/04 13:24:02;;;;;;;;;;;;;;;;;;21271720;27;19928;-61
2022/08/04 13:34:04;;;;;;;;;;;;;;;;;;21255329;27;19923;-61
2022/08/04 13:44:10;;;;;;;;;;;;;;;;;;21255358;27;19923;-62
2022/08/04 13:54:12;;;;;;;;;;;;;;;;;;21253946;27;19931;-64
2022/08/04 14:04:14;;;;;;;;;;;;;;;;;;21253806;27;19976;-63
2022/08/04 14:14:16;;;;;;;;;;;;;;;;;;21251920;27;20391;-67
2022/08/04 14:24:18;;;;;;;;;;;;;;;;;;21252673;27;19955;-66
2022/08/04 14:34:20;;;;;;;;;;;;;;;;;;21251962;27;19924;-56
2022/08/04 14:44:21;;;;;;;;;;;;;;;;;;21250863;27;19996;-62
2022/08/04 14:54:22;;;;;;;;;;;;;;;;;;21249297;27;19977;-65
2022/08/04 15:04:24;;;;;;;;;;;;;;;;;;21249804;27;19923;-64
2022/08/04 15:14:26;;;;;;;;;;;;;;;;;;21263643;27;19923;-64
2022/08/04 15:24:27;;;;;;;;;;;;;;;;;;21247972;27;19923;-64
2022/08/04 15:34:29;;;;;;;;;;;;;;;;;;21249881;28;19931;-64
2022/08/04 15:44:31;;;;;;;;;;;;;;;;;;21247157;28;19927;-65
2022/08/04 15:54:34;;;;;;;;;;;;;;;;;;21246770;28;19930;-65
2022/08/04 16:04:36;;;;;;;;;;;;;;;;;;21247038;28;19923;-58
2022/08/04 16:14:38;;;;;;;;;;;;;;;;;;21245199;28;19988;-59
2022/08/04 16:24:40;;;;;;;;;;;;;;;;;;21252141;27;19923;-58
2022/08/04 16:34:41;;;;;;;;;;;;;;;;;;21250689;27;20031;-64
2022/08/04 16:44:43;;;;;;;;;;;;;;;;;;21267251;27;20068;-65
2022/08/04 16:54:45;;;;;;;;;;;;;;;;;;21259806;27;19924;-62
2022/08/04 17:04:46;;;;;;;;;;;;;;;;;;21259838;27;19976;-64
2022/08/04 17:14:48;;;;;;;;;;;;;;;;;;21257363;27;19947;-64
2022/08/04 17:24:50;;;;;;;;;;;;;;;;;;21257942;27;20346;-62
2022/08/04 17:34:51;;;;;;;;;;;;;;;;;;21256227;27;19931;-62
2022/08/04 17:44:53;;;;;;;;;;;;;;;;;;21255833;27;19923;-61
2022/08/04 17:54:55;;;;;;;;;;;;;;;;;;21255479;27;19976;-65
2022/08/04 18:04:57;;;;;;;;;;;;;;;;;;21254221;27;19989;-64
2022/08/04 18:14:59;;;;;;;;;;;;;;;;;;21254903;27;19996;-64
2022/08/04 18:25:01;;;;;;;;;;;;;;;;;;21252518;27;19924;-65
2022/08/04 18:35:03;;;;;;;;;;;;;;;;;;21251341;27;20468;-66
2022/08/04 18:45:05;;;;;;;;;;;;;;;;;;21249900;27;20408;-63
2022/08/04 18:55:07;;;;;;;;;;;;;;;;;;21249888;27;19923;-65
2022/08/04 19:05:11;;;;;;;;;;;;;;;;;;21252462;27;19981;-64
2022/08/04 19:15:13;;;;;;;;;;;;;;;;;;21248536;27;19931;-64
2022/08/04 19:25:15;;;;;;;;;;;;;;;;;;21249373;27;19927;-65
2022/08/04 19:35:16;;;;;;;;;;;;;;;;;;21248504;28;20402;-64
2022/08/04 19:45:18;;;;;;;;;;;;;;;;;;21249259;28;19927;-62
2022/08/04 19:55:20;;;;;;;;;;;;;;;;;;21255169;27;20010;-60
2022/08/04 20:05:22;;;;;;;;;;;;;;;;;;21264851;27;19927;-57
2022/08/04 20:15:23;;;;;;;;;;;;;;;;;;21261705;27;19924;-59
2022/08/04 20:25:25;;;;;;;;;;;;;;;;;;21262583;27;19930;-64
2022/08/04 20:35:27;;;;;;;;;;;;;;;;;;21263451;27;19924;-64
2022/08/04 20:45:28;;;;;;;;;;;;;;;;;;21261719;27;19927;-59
2022/08/04 20:55:30;;;;;;;;;;;;;;;;;;21260618;27;19923;-59
2022/08/04 21:05:32;;;;;;;;;;;;;;;;;;21258680;27;19935;-59
2022/08/04 21:15:34;;;;;;;;;;;;;;;;;;21257592;27;19923;-63
2022/08/04 21:25:36;;;;;;;;;;;;;;;;;;21257642;27;19923;-65
2022/08/04 21:35:38;;;;;;;;;;;;;;;;;;21257312;27;19927;-65
2022/08/04 21:45:40;;;;;;;;;;;;;;;;;;21256190;27;19923;-60
2022/08/04 21:55:42;;;;;;;;;;;;;;;;;;21256306;27;19923;-60
2022/08/04 22:05:44;;;;;;;;;;;;;;;;;;21251085;27;19984;-56
2022/08/04 22:15:46;;;;;;;;;;;;;;;;;;21160896;28;19931;-64
2022/08/04 22:25:48;;;;;;;;;;;;;;;;;;21169854;28;20364;-55
2022/08/04 22:35:49;;;;;;;;;;;;;;;;;;21169129;28;19924;-55
2022/08/04 22:45:52;;;;;;;;;;;;;;;;;;21167123;28;19924;-65
2022/08/04 22:55:53;;;;;;;;;;;;;;;;;;21181853;27;19973;-63
2022/08/04 23:05:55;;;;;;;;;;;;;;;;;;21169093;28;19923;-55
2022/08/04 23:15:57;;;;;;;;;;;;;;;;;;21164915;28;19931;-65
2022/08/04 23:25:59;;;;;;;;;;;;;;;;;;21165852;28;19924;-61
2022/08/04 23:36:01;;;;;;;;;;;;;;;;;;21163367;28;20375;-57
2022/08/04 23:46:03;;;;;;;;;;;;;;;;;;21164434;28;19934;-64
2022/08/04 23:56:04;;;;;;;;;;;;;;;;;;21164932;28;19935;-58
